Time;durP1;ratioP1;P1;durP2;ratioP2;P2;SDS_P1;SDS_P2;PMS_P1;PMS_P2;Temp;Humidity;BMP_temperature;BMP_pressure;BME280_temperature;BME280_humidity;BME280_pressure;Samples;Min_cycle;Max_cycle;Signal;HPM_P1;HPM_P2
2022/04/04 00:00:41;;;;;;;4.65;1.42;;;;;;;;;;5043511;28;20044;-66
2022/04/04 00:03:08;;;;;;;7.88;1.70;;;;;;;;;;5044125;28;20048;-65
2022/04/04 00:05:35;;;;;;;7.78;1.38;;;;;;;;;;5042205;28;20067;-65
2022/04/04 00:08:01;;;;;;;6.10;1.20;;;;;;;;;;5043892;28;20517;-66
2022/04/04 00:10:28;;;;;;;5.35;1.75;;;;;;;;;;5032696;28;20059;-66
2022/04/04 00:12:55;;;;;;;6.45;1.48;;;;;;;;;;5042590;28;20033;-65
2022/04/04 00:15:22;;;;;;;7.30;1.52;;;;;;;;;;5034877;28;20057;-66
2022/04/04 00:17:49;;;;;;;3.15;1.20;;;;;;;;;;5039085;28;20038;-66
2022/04/04 00:20:16;;;;;;;4.40;1.50;;;;;;;;;;5025929;28;20040;-65
2022/04/04 00:22:43;;;;;;;3.40;1.40;;;;;;;;;;5042474;28;20116;-65
2022/04/04 00:25:12;;;;;;;8.10;1.85;;;;;;;;;;5042782;28;20464;-65
2022/04/04 00:27:39;;;;;;;9.55;2.00;;;;;;;;;;5041866;28;20041;-66
2022/04/04 00:30:06;;;;;;;4.80;1.92;;;;;;;;;;5040630;28;20044;-66
2022/04/04 00:32:33;;;;;;;6.35;1.80;;;;;;;;;;5040993;28;20041;-67
2022/04/04 00:35:00;;;;;;;4.80;1.40;;;;;;;;;;5042389;28;20060;-65
2022/04/04 00:37:27;;;;;;;7.68;1.90;;;;;;;;;;5041813;28;20136;-65
2022/04/04 00:39:54;;;;;;;5.00;2.13;;;;;;;;;;5041659;28;20579;-64
2022/04/04 00:42:21;;;;;;;7.15;2.88;;;;;;;;;;5057768;28;20052;-65
2022/04/04 00:44:51;;;;;;;4.78;1.80;;;;;;;;;;5041680;28;20130;-67
2022/04/04 00:47:18;;;;;;;7.07;1.65;;;;;;;;;;5053471;28;20417;-66
2022/04/04 00:49:45;;;;;;;6.78;1.40;;;;;;;;;;5041790;28;20136;-65
2022/04/04 00:52:11;;;;;;;4.68;1.10;;;;;;;;;;5033267;28;20037;-64
2022/04/04 00:54:38;;;;;;;4.10;1.00;;;;;;;;;;5039286;28;20052;-66
2022/04/04 00:57:05;;;;;;;3.42;1.00;;;;;;;;;;5024258;28;20069;-65
2022/04/04 00:59:32;;;;;;;4.35;1.40;;;;;;;;;;5028391;28;20048;-65
2022/04/04 01:01:58;;;;;;;4.20;1.20;;;;;;;;;;5030810;28;20045;-65
2022/04/04 01:04:25;;;;;;;4.78;1.80;;;;;;;;;;5031503;28;20176;-65
2022/04/04 01:06:52;;;;;;;3.60;1.20;;;;;;;;;;5040993;28;20049;-64
2022/04/04 01:09:19;;;;;;;3.75;1.48;;;;;;;;;;5047114;28;20798;-65
2022/04/04 01:12:04;;;;;;;8.15;1.48;;;;;;;;;;5040205;28;21693;-66
2022/04/04 01:14:31;;;;;;;4.28;1.70;;;;;;;;;;5041046;28;20056;-67
2022/04/04 01:16:57;;;;;;;4.93;1.75;;;;;;;;;;5041997;28;20052;-64
2022/04/04 01:19:24;;;;;;;8.85;1.60;;;;;;;;;;5052787;28;20512;-64
2022/04/04 01:21:53;;;;;;;3.08;0.95;;;;;;;;;;5040542;28;20049;-64
2022/04/04 01:24:20;;;;;;;2.63;0.93;;;;;;;;;;5044531;28;20037;-64
2022/04/04 01:26:47;;;;;;;3.00;0.70;;;;;;;;;;5043374;28;20041;-63
2022/04/04 01:29:14;;;;;;;3.55;0.90;;;;;;;;;;5025525;28;20564;-63
2022/04/04 01:31:41;;;;;;;5.65;0.90;;;;;;;;;;5040061;28;20040;-65
2022/04/04 01:34:08;;;;;;;1.88;0.60;;;;;;;;;;5053653;28;20106;-65
2022/04/04 01:36:35;;;;;;;5.63;0.98;;;;;;;;;;5040480;28;21665;-65
2022/04/04 01:39:02;;;;;;;10.13;0.90;;;;;;;;;;5041547;28;20055;-64
2022/04/04 01:41:28;;;;;;;3.78;0.68;;;;;;;;;;5040219;28;20056;-65
2022/04/04 01:43:55;;;;;;;2.75;0.70;;;;;;;;;;5052696;28;20052;-65
2022/04/04 01:46:26;;;;;;;4.28;0.80;;;;;;;;;;5040646;28;20060;-64
2022/04/04 01:48:54;;;;;;;2.33;0.70;;;;;;;;;;5041169;28;20041;-66
2022/04/04 01:51:21;;;;;;;3.30;0.70;;;;;;;;;;5039650;28;20383;-64
2022/04/04 01:53:48;;;;;;;2.10;0.73;;;;;;;;;;5040582;28;20040;-64
2022/04/04 01:56:16;;;;;;;2.72;0.70;;;;;;;;;;5039134;28;20106;-65
2022/04/04 01:58:42;;;;;;;4.38;0.90;;;;;;;;;;5043244;28;20049;-65
2022/04/04 02:01:16;;;;;;;2.67;0.75;;;;;;;;;;5043606;28;20053;-64
2022/04/04 02:03:44;;;;;;;2.92;0.85;;;;;;;;;;5039318;28;20268;-65
2022/04/04 02:06:11;;;;;;;3.50;0.90;;;;;;;;;;5021039;28;20599;-65
2022/04/04 02:08:38;;;;;;;6.72;0.80;;;;;;;;;;5018798;28;20124;-65
2022/04/04 02:11:05;;;;;;;2.80;0.65;;;;;;;;;;5054404;28;20040;-65
2022/04/04 02:13:31;;;;;;;2.70;0.80;;;;;;;;;;5048101;28;20094;-65
2022/04/04 02:16:01;;;;;;;3.00;0.88;;;;;;;;;;5055621;28;20048;-65
2022/04/04 02:18:28;;;;;;;5.05;0.80;;;;;;;;;;5044298;28;20940;-64
2022/04/04 02:20:55;;;;;;;2.65;0.85;;;;;;;;;;5030014;28;20071;-64
2022/04/04 02:23:22;;;;;;;4.15;1.02;;;;;;;;;;5040344;28;20033;-65
2022/04/04 02:25:50;;;;;;;4.10;0.80;;;;;;;;;;5033989;28;20045;-64
2022/04/04 02:28:17;;;;;;;2.97;0.75;;;;;;;;;;5044095;28;20032;-65
2022/04/04 02:30:44;;;;;;;3.83;0.80;;;;;;;;;;5042209;28;20068;-64
2022/04/04 02:33:15;;;;;;;4.28;1.00;;;;;;;;;;5043270;28;20052;-64
2022/04/04 02:35:42;;;;;;;5.25;1.00;;;;;;;;;;5042142;28;20052;-65
2022/04/04 02:38:09;;;;;;;2.80;0.85;;;;;;;;;;5043000;28;20421;-67
2022/04/04 02:40:36;;;;;;;5.32;0.90;;;;;;;;;;5041083;28;20045;-64
2022/04/04 02:43:04;;;;;;;7.20;1.13;;;;;;;;;;5039310;28;20103;-65
2022/04/04 02:45:31;;;;;;;3.15;0.95;;;;;;;;;;5041929;28;20106;-65
2022/04/04 02:47:57;;;;;;;2.25;0.80;;;;;;;;;;5025868;28;20048;-65
2022/04/04 02:50:24;;;;;;;5.22;0.90;;;;;;;;;;5038239;28;20056;-64
2022/04/04 02:52:51;;;;;;;3.58;1.20;;;;;;;;;;5034562;28;20521;-65
2022/04/04 02:58:03;;;;;;;9.45;2.88;;;;;;;;;;5042097;28;20581;-65
2022/04/04 03:00:30;;;;;;;6.45;1.35;;;;;;;;;;5041912;28;20045;-62
2022/04/04 03:02:57;;;;;;;2.75;0.90;;;;;;;;;;5041419;28;20554;-64
2022/04/04 03:05:24;;;;;;;3.95;1.17;;;;;;;;;;5041129;28;20049;-64
2022/04/04 03:07:52;;;;;;;7.63;1.30;;;;;;;;;;5042013;28;20041;-65
2022/04/04 03:10:18;;;;;;;3.55;1.13;;;;;;;;;;5041291;28;20044;-63
2022/04/04 03:12:47;;;;;;;7.55;1.10;;;;;;;;;;5039303;28;20041;-68
2022/04/04 03:15:16;;;;;;;3.88;0.93;;;;;;;;;;5040954;28;20060;-62
2022/04/04 03:17:43;;;;;;;4.85;1.73;;;;;;;;;;5037589;28;20052;-64
2022/04/04 03:20:10;;;;;;;3.55;1.20;;;;;;;;;;5034970;28;20033;-65
2022/04/04 03:22:38;;;;;;;6.35;1.35;;;;;;;;;;5040574;28;20105;-65
2022/04/04 03:25:05;;;;;;;5.88;1.50;;;;;;;;;;5041678;28;20061;-65
2022/04/04 03:27:33;;;;;;;6.57;1.63;;;;;;;;;;5039978;28;20486;-64
2022/04/04 03:30:00;;;;;;;7.20;1.58;;;;;;;;;;5035071;28;20139;-65
2022/04/04 03:32:26;;;;;;;7.57;1.60;;;;;;;;;;5041126;28;20489;-65
2022/04/04 03:34:53;;;;;;;4.78;1.50;;;;;;;;;;5042663;28;20045;-63
2022/04/04 03:37:20;;;;;;;5.13;1.50;;;;;;;;;;5036177;28;20110;-64
2022/04/04 03:39:47;;;;;;;5.97;1.92;;;;;;;;;;5042855;28;20488;-64
2022/04/04 03:42:13;;;;;;;6.85;1.55;;;;;;;;;;5039990;28;20052;-64
2022/04/04 03:44:40;;;;;;;5.55;1.70;;;;;;;;;;5043886;28;20041;-64
2022/04/04 03:47:10;;;;;;;10.50;1.88;;;;;;;;;;5038297;28;20034;-65
2022/04/04 03:49:38;;;;;;;6.88;1.63;;;;;;;;;;5043283;28;20037;-65
2022/04/04 03:52:05;;;;;;;6.57;1.50;;;;;;;;;;5044005;28;21030;-65
2022/04/04 03:54:32;;;;;;;14.77;1.98;;;;;;;;;;5043884;28;20417;-65
2022/04/04 03:56:59;;;;;;;5.38;1.95;;;;;;;;;;5042400;28;20033;-63
2022/04/04 03:59:26;;;;;;;13.95;2.40;;;;;;;;;;5041225;28;20044;-64
2022/04/04 04:01:53;;;;;;;6.57;1.70;;;;;;;;;;5042103;28;20048;-65
2022/04/04 04:04:20;;;;;;;15.07;2.05;;;;;;;;;;5042743;28;20049;-64
2022/04/04 04:06:47;;;;;;;11.77;2.10;;;;;;;;;;5040499;28;20038;-65
2022/04/04 04:09:14;;;;;;;9.00;2.15;;;;;;;;;;5031010;28;20044;-64
2022/04/04 04:11:41;;;;;;;9.73;2.03;;;;;;;;;;5027318;28;22215;-64
2022/04/04 04:14:08;;;;;;;12.25;2.97;;;;;;;;;;5035354;28;20221;-65
2022/04/04 04:16:35;;;;;;;7.15;2.40;;;;;;;;;;5041339;28;20565;-64
2022/04/04 04:19:02;;;;;;;6.10;2.13;;;;;;;;;;5041693;28;20037;-64
2022/04/04 04:21:28;;;;;;;4.50;1.75;;;;;;;;;;5039501;28;20409;-64
2022/04/04 04:23:55;;;;;;;7.13;1.50;;;;;;;;;;5041399;28;20041;-63
2022/04/04 04:26:23;;;;;;;8.20;1.60;;;;;;;;;;5039380;28;20501;-64
2022/04/04 04:28:50;;;;;;;6.35;1.60;;;;;;;;;;5041330;28;20070;-65
2022/04/04 04:31:18;;;;;;;4.57;1.77;;;;;;;;;;5031410;28;20779;-65
2022/04/04 04:33:44;;;;;;;5.40;1.67;;;;;;;;;;5029075;28;20040;-66
2022/04/04 04:36:12;;;;;;;5.93;2.00;;;;;;;;;;5041056;28;20044;-65
2022/04/04 04:38:38;;;;;;;9.63;1.50;;;;;;;;;;5039922;28;20076;-65
2022/04/04 04:41:05;;;;;;;5.35;1.38;;;;;;;;;;5040678;28;20037;-65
2022/04/04 04:43:32;;;;;;;3.80;1.30;;;;;;;;;;5019719;28;20139;-64
2022/04/04 04:45:59;;;;;;;6.60;1.20;;;;;;;;;;5017541;28;20060;-64
2022/04/04 04:48:26;;;;;;;6.90;1.17;;;;;;;;;;5037020;28;20540;-64
2022/04/04 04:50:52;;;;;;;5.10;1.20;;;;;;;;;;5040237;28;20433;-65
2022/04/04 04:53:19;;;;;;;2.75;0.80;;;;;;;;;;5040926;28;20489;-65
2022/04/04 04:55:46;;;;;;;5.05;0.98;;;;;;;;;;5039083;28;20075;-65
2022/04/04 04:58:13;;;;;;;2.97;0.80;;;;;;;;;;5039997;28;20088;-65
2022/04/04 05:00:40;;;;;;;4.63;0.77;;;;;;;;;;5040134;28;20581;-65
2022/04/04 05:03:26;;;;;;;2.53;0.95;;;;;;;;;;5038314;28;20079;-65
2022/04/04 05:05:52;;;;;;;3.03;1.00;;;;;;;;;;5039648;28;20098;-64
2022/04/04 05:08:19;;;;;;;2.25;0.80;;;;;;;;;;5040179;28;20457;-64
2022/04/04 05:10:46;;;;;;;2.60;0.80;;;;;;;;;;5038544;28;20051;-65
2022/04/04 05:13:16;;;;;;;2.45;0.98;;;;;;;;;;5040389;28;20061;-64
2022/04/04 05:15:44;;;;;;;2.13;0.80;;;;;;;;;;5039522;28;21712;-64
2022/04/04 05:18:11;;;;;;;2.40;0.75;;;;;;;;;;5042129;28;20164;-64
2022/04/04 05:20:37;;;;;;;2.60;0.80;;;;;;;;;;5039973;28;20500;-63
2022/04/04 05:23:04;;;;;;;3.45;0.90;;;;;;;;;;5041118;28;20056;-63
2022/04/04 05:25:31;;;;;;;1.70;0.60;;;;;;;;;;5053375;28;20037;-62
2022/04/04 05:27:58;;;;;;;3.58;0.73;;;;;;;;;;5035899;28;20037;-63
2022/04/04 05:30:25;;;;;;;2.30;0.80;;;;;;;;;;5039285;28;20037;-64
2022/04/04 05:32:52;;;;;;;3.50;0.80;;;;;;;;;;5043375;28;20083;-64
2022/04/04 05:35:19;;;;;;;3.33;0.80;;;;;;;;;;5037382;28;20037;-63
2022/04/04 05:37:46;;;;;;;2.63;0.60;;;;;;;;;;5034221;28;20049;-64
2022/04/04 05:40:14;;;;;;;2.20;0.65;;;;;;;;;;5057888;28;20036;-63
2022/04/04 05:42:40;;;;;;;4.22;0.90;;;;;;;;;;5057041;28;20163;-64
2022/04/04 05:45:09;;;;;;;2.97;0.70;;;;;;;;;;5047163;28;20056;-65
2022/04/04 05:47:36;;;;;;;2.63;0.80;;;;;;;;;;5035721;28;20049;-64
2022/04/04 05:50:03;;;;;;;2.78;0.80;;;;;;;;;;5046565;28;20040;-64
2022/04/04 05:52:30;;;;;;;1.95;0.70;;;;;;;;;;5044607;28;20056;-64
2022/04/04 05:55:01;;;;;;;1.90;0.60;;;;;;;;;;5036319;28;20087;-64
2022/04/04 05:57:30;;;;;;;2.20;0.70;;;;;;;;;;5045485;28;20041;-64
2022/04/04 05:59:57;;;;;;;2.67;0.77;;;;;;;;;;5046183;28;20041;-64
2022/04/04 06:02:26;;;;;;;2.55;0.82;;;;;;;;;;5044934;28;20516;-64
2022/04/04 06:04:53;;;;;;;2.17;0.77;;;;;;;;;;5046377;28;20048;-63
2022/04/04 06:07:20;;;;;;;3.55;1.00;;;;;;;;;;5044666;28;20037;-64
2022/04/04 06:09:47;;;;;;;2.58;0.95;;;;;;;;;;5043811;28;20048;-64
2022/04/04 06:12:13;;;;;;;3.28;0.70;;;;;;;;;;5044277;28;20449;-64
2022/04/04 06:14:40;;;;;;;3.70;0.95;;;;;;;;;;5044248;28;20056;-64
2022/04/04 06:17:07;;;;;;;3.42;0.90;;;;;;;;;;5045285;28;20052;-64
2022/04/04 06:19:34;;;;;;;2.30;0.70;;;;;;;;;;5045753;28;20076;-65
2022/04/04 06:22:04;;;;;;;2.45;0.80;;;;;;;;;;5047165;28;20048;-63
2022/04/04 06:24:31;;;;;;;3.03;0.80;;;;;;;;;;5046926;28;20025;-63
2022/04/04 06:26:58;;;;;;;2.17;0.75;;;;;;;;;;5032314;28;20053;-64
2022/04/04 06:29:25;;;;;;;2.88;0.82;;;;;;;;;;5033393;28;20923;-64
2022/04/04 06:31:52;;;;;;;3.03;0.82;;;;;;;;;;5046100;28;20702;-65
2022/04/04 06:34:19;;;;;;;3.22;1.00;;;;;;;;;;5035968;28;20046;-64
2022/04/04 06:36:46;;;;;;;2.63;0.77;;;;;;;;;;5044647;28;20524;-65
2022/04/04 06:39:13;;;;;;;2.97;0.88;;;;;;;;;;5027532;28;20490;-64
2022/04/04 06:41:40;;;;;;;2.53;0.80;;;;;;;;;;5056932;28;20056;-63
2022/04/04 06:44:07;;;;;;;2.13;0.75;;;;;;;;;;5046730;28;20025;-64
2022/04/04 06:46:37;;;;;;;2.75;0.80;;;;;;;;;;5060229;28;20087;-65
2022/04/04 06:49:04;;;;;;;3.50;1.00;;;;;;;;;;5027615;28;20128;-64
2022/04/04 06:51:32;;;;;;;2.78;1.00;;;;;;;;;;5040369;28;20773;-64
2022/04/04 06:53:59;;;;;;;2.53;0.82;;;;;;;;;;5035699;28;20069;-63
2022/04/04 06:56:26;;;;;;;4.72;0.90;;;;;;;;;;5055887;28;20033;-64
2022/04/04 06:58:53;;;;;;;3.08;0.93;;;;;;;;;;5046524;28;20124;-64
2022/04/04 07:01:20;;;;;;;3.75;1.02;;;;;;;;;;5043937;28;20083;-64
2022/04/04 07:03:47;;;;;;;4.50;1.00;;;;;;;;;;5044350;28;20043;-64
2022/04/04 07:06:14;;;;;;;2.65;0.80;;;;;;;;;;5044097;28;20068;-64
2022/04/04 07:08:40;;;;;;;2.92;0.90;;;;;;;;;;5044497;28;20037;-63
2022/04/04 07:11:10;;;;;;;2.70;0.98;;;;;;;;;;5044711;28;20056;-64
2022/04/04 07:13:39;;;;;;;2.70;1.00;;;;;;;;;;5042595;28;20044;-63
2022/04/04 07:16:06;;;;;;;2.25;0.70;;;;;;;;;;5043280;28;20087;-63
2022/04/04 07:18:34;;;;;;;2.70;0.70;;;;;;;;;;5042402;28;20443;-62
2022/04/04 07:21:00;;;;;;;2.63;0.93;;;;;;;;;;5035844;28;20402;-63
2022/04/04 07:23:27;;;;;;;3.33;0.93;;;;;;;;;;5029660;28;20032;-62
2022/04/04 07:25:54;;;;;;;2.67;1.05;;;;;;;;;;5043005;28;20048;-63
2022/04/04 07:28:22;;;;;;;3.00;0.85;;;;;;;;;;5032351;28;20038;-63
2022/04/04 07:30:50;;;;;;;3.13;0.95;;;;;;;;;;5041533;28;20095;-64
2022/04/04 07:33:18;;;;;;;2.20;0.70;;;;;;;;;;5044089;28;20640;-63
2022/04/04 07:35:45;;;;;;;2.47;0.80;;;;;;;;;;5043596;28;20056;-63
2022/04/04 07:38:12;;;;;;;3.33;0.80;;;;;;;;;;5026411;28;20064;-64
2022/04/04 07:40:39;;;;;;;2.47;0.80;;;;;;;;;;5032255;28;20123;-64
2022/04/04 07:43:06;;;;;;;1.85;0.60;;;;;;;;;;5044588;28;20060;-64
2022/04/04 07:45:33;;;;;;;2.85;0.82;;;;;;;;;;5043550;28;20144;-64
2022/04/04 07:48:00;;;;;;;2.35;0.70;;;;;;;;;;5038435;28;20052;-64
2022/04/04 07:50:27;;;;;;;2.40;0.80;;;;;;;;;;5039655;28;20380;-62
2022/04/04 07:52:54;;;;;;;2.90;0.80;;;;;;;;;;5041635;28;20044;-63
2022/04/04 07:55:20;;;;;;;3.20;0.90;;;;;;;;;;5042017;28;20036;-63
2022/04/04 07:57:47;;;;;;;2.28;0.70;;;;;;;;;;5041718;28;20041;-63
2022/04/04 08:00:17;;;;;;;3.58;1.02;;;;;;;;;;5042727;28;20120;-63
2022/04/04 08:02:44;;;;;;;2.58;0.70;;;;;;;;;;5038114;28;20157;-63
2022/04/04 08:05:11;;;;;;;2.00;0.60;;;;;;;;;;5036566;28;20037;-63
2022/04/04 08:07:40;;;;;;;2.35;0.90;;;;;;;;;;5040504;28;20064;-63
2022/04/04 08:10:07;;;;;;;4.18;0.90;;;;;;;;;;5041934;28;20119;-63
2022/04/04 08:12:35;;;;;;;5.47;0.70;;;;;;;;;;5040748;28;20116;-64
2022/04/04 08:15:02;;;;;;;2.60;0.88;;;;;;;;;;5042730;28;20040;-64
2022/04/04 08:17:29;;;;;;;3.53;0.80;;;;;;;;;;5052811;28;20043;-63
2022/04/04 08:19:56;;;;;;;2.28;0.70;;;;;;;;;;5042197;28;20040;-63
2022/04/04 08:22:23;;;;;;;2.03;0.60;;;;;;;;;;5040590;28;20041;-63
2022/04/04 08:24:50;;;;;;;4.30;1.10;;;;;;;;;;5043118;28;20564;-63
2022/04/04 08:27:17;;;;;;;2.30;0.68;;;;;;;;;;5033752;28;20118;-63
2022/04/04 08:29:44;;;;;;;2.50;0.70;;;;;;;;;;5039587;28;20108;-64
2022/04/04 08:32:11;;;;;;;4.55;0.95;;;;;;;;;;5037167;28;20135;-64
2022/04/04 08:34:37;;;;;;;3.33;0.82;;;;;;;;;;5040542;28;20040;-64
2022/04/04 08:37:04;;;;;;;2.47;0.80;;;;;;;;;;5043137;28;20125;-64
2022/04/04 08:39:31;;;;;;;2.83;0.80;;;;;;;;;;5040834;28;20045;-64
2022/04/04 08:41:58;;;;;;;2.72;0.95;;;;;;;;;;5042295;28;20049;-64
2022/04/04 08:44:25;;;;;;;3.05;1.10;;;;;;;;;;5040908;28;20041;-64
2022/04/04 08:46:52;;;;;;;3.75;1.05;;;;;;;;;;5041063;28;20045;-64
2022/04/04 08:49:19;;;;;;;6.13;1.00;;;;;;;;;;5040193;28;20450;-64
2022/04/04 08:51:48;;;;;;;4.22;1.10;;;;;;;;;;5040942;28;20041;-63
2022/04/04 08:54:15;;;;;;;5.63;0.95;;;;;;;;;;5041052;28;20047;-63
2022/04/04 08:56:43;;;;;;;2.83;0.95;;;;;;;;;;5040913;28;20032;-64
2022/04/04 08:59:10;;;;;;;3.45;0.98;;;;;;;;;;5040944;28;20151;-63
2022/04/04 09:01:37;;;;;;;4.70;0.82;;;;;;;;;;5039804;28;20057;-63
2022/04/04 09:04:06;;;;;;;4.72;0.82;;;;;;;;;;5052303;28;20046;-63
2022/04/04 09:06:46;;;;;;;2.97;1.00;;;;;;;;;;5032518;28;20662;-64
2022/04/04 09:09:18;;;;;;;5.20;0.80;;;;;;;;;;5032641;28;20041;-63
2022/04/04 09:11:52;;;;;;;2.97;0.70;;;;;;;;;;5049297;28;20775;-63
2022/04/04 09:14:24;;;;;;;2.03;0.55;;;;;;;;;;5037203;28;20048;-63
2022/04/04 09:16:57;;;;;;;3.92;0.70;;;;;;;;;;5032629;28;20500;-63
2022/04/04 09:19:30;;;;;;;2.50;0.65;;;;;;;;;;5030852;28;20454;-63
2022/04/04 09:21:57;;;;;;;2.55;0.73;;;;;;;;;;5038973;28;20918;-65
2022/04/04 09:24:43;;;;;;;3.53;0.90;;;;;;;;;;5039389;28;20040;-63
2022/04/04 09:27:13;;;;;;;6.72;0.88;;;;;;;;;;5042374;28;20466;-63
2022/04/04 09:29:43;;;;;;;2.17;0.60;;;;;;;;;;5031631;28;20041;-64
2022/04/04 09:32:15;;;;;;;4.25;0.77;;;;;;;;;;5042277;28;20112;-63
2022/04/04 09:34:56;;;;;;;1.70;0.65;;;;;;;;;;5041991;28;20049;-63
2022/04/04 09:37:24;;;;;;;3.10;0.90;;;;;;;;;;5041460;28;20049;-63
2022/04/04 09:39:52;;;;;;;2.75;0.90;;;;;;;;;;5042351;28;20112;-63
2022/04/04 09:42:20;;;;;;;6.38;1.33;;;;;;;;;;5040399;28;20053;-63
2022/04/04 09:45:04;;;;;;;3.00;0.98;;;;;;;;;;5042270;28;20046;-64
2022/04/04 09:47:49;;;;;;;3.47;0.90;;;;;;;;;;5039510;28;20397;-64
2022/04/04 09:50:30;;;;;;;4.63;1.00;;;;;;;;;;5041155;28;20045;-64
2022/04/04 09:52:57;;;;;;;2.95;0.98;;;;;;;;;;5034873;28;20394;-64
2022/04/04 09:55:31;;;;;;;4.72;1.20;;;;;;;;;;5037210;28;20196;-63
2022/04/04 09:57:59;;;;;;;3.58;0.98;;;;;;;;;;5041787;28;20033;-63
2022/04/04 10:00:26;;;;;;;4.35;1.08;;;;;;;;;;5030879;28;20029;-63
2022/04/04 10:02:57;;;;;;;2.55;0.80;;;;;;;;;;5042073;28;20053;-64
2022/04/04 10:05:27;;;;;;;5.50;1.00;;;;;;;;;;5042773;28;20591;-63
2022/04/04 10:07:56;;;;;;;2.47;0.82;;;;;;;;;;5035880;28;20528;-63
2022/04/04 10:10:25;;;;;;;2.38;0.82;;;;;;;;;;5042093;28;20037;-64
2022/04/04 10:12:52;;;;;;;4.75;1.00;;;;;;;;;;5043891;28;20095;-64
2022/04/04 10:15:20;;;;;;;4.00;0.90;;;;;;;;;;5032101;28;20075;-64
2022/04/04 10:17:47;;;;;;;5.55;1.00;;;;;;;;;;5030661;28;20088;-63
2022/04/04 10:20:14;;;;;;;2.47;0.73;;;;;;;;;;5027021;28;20132;-63
2022/04/04 10:22:40;;;;;;;3.95;0.82;;;;;;;;;;5022789;28;20052;-64
2022/04/04 10:25:08;;;;;;;3.28;0.90;;;;;;;;;;5021951;28;20046;-64
2022/04/04 10:27:35;;;;;;;1.92;0.70;;;;;;;;;;5020562;28;20037;-63
2022/04/04 10:30:06;;;;;;;3.97;0.73;;;;;;;;;;5038752;28;20057;-63
2022/04/04 10:32:34;;;;;;;2.13;0.70;;;;;;;;;;5021156;28;20045;-62
2022/04/04 10:35:11;;;;;;;2.88;0.90;;;;;;;;;;5021704;28;20088;-62
2022/04/04 10:37:45;;;;;;;2.67;0.80;;;;;;;;;;5021637;28;20888;-62
2022/04/04 10:40:20;;;;;;;3.08;1.00;;;;;;;;;;5022225;28;20196;-62
2022/04/04 10:42:48;;;;;;;3.10;0.80;;;;;;;;;;5045473;28;20508;-62
2022/04/04 10:45:16;;;;;;;5.90;0.80;;;;;;;;;;5045084;28;20147;-62
2022/04/04 10:47:44;;;;;;;2.40;0.80;;;;;;;;;;5045847;28;20041;-63
2022/04/04 10:50:25;;;;;;;2.75;0.80;;;;;;;;;;5045603;28;20654;-63
2022/04/04 10:52:53;;;;;;;2.47;0.90;;;;;;;;;;5045226;28;20349;-63
2022/04/04 10:55:38;;;;;;;3.38;0.80;;;;;;;;;;5061083;28;20052;-63
2022/04/04 10:58:08;;;;;;;2.90;0.90;;;;;;;;;;5034284;28;20041;-63
2022/04/04 11:00:35;;;;;;;2.45;0.80;;;;;;;;;;5044981;28;20503;-62
2022/04/04 11:03:02;;;;;;;3.72;0.90;;;;;;;;;;5045803;28;20041;-62
2022/04/04 11:08:32;;;;;;;1.95;0.77;;;;;;;;;;5027709;28;20037;-64
2022/04/04 11:10:59;;;;;;;3.22;1.10;;;;;;;;;;5044306;28;20076;-64
2022/04/04 11:13:26;;;;;;;3.65;1.00;;;;;;;;;;5043461;28;20157;-64
2022/04/04 11:15:54;;;;;;;3.85;1.02;;;;;;;;;;5044614;28;20049;-64
2022/04/04 11:18:21;;;;;;;5.00;0.85;;;;;;;;;;5045529;28;20588;-64
2022/04/04 11:20:50;;;;;;;2.25;0.82;;;;;;;;;;5052442;28;20049;-64
2022/04/04 11:23:17;;;;;;;3.33;0.90;;;;;;;;;;5038066;28;20045;-64
2022/04/04 11:25:54;;;;;;;3.40;0.90;;;;;;;;;;5045293;28;20109;-64
2022/04/04 11:28:31;;;;;;;2.45;0.90;;;;;;;;;;5045057;28;20036;-64
2022/04/04 11:31:04;;;;;;;2.42;1.00;;;;;;;;;;5036907;28;20033;-64
2022/04/04 11:33:34;;;;;;;2.88;0.82;;;;;;;;;;5033426;28;20044;-64
2022/04/04 11:36:03;;;;;;;2.85;1.00;;;;;;;;;;5045608;28;20049;-63
2022/04/04 11:38:39;;;;;;;2.67;0.98;;;;;;;;;;5043967;28;20430;-63
2022/04/04 11:41:11;;;;;;;3.13;0.90;;;;;;;;;;5059336;28;20037;-63
2022/04/04 11:43:40;;;;;;;5.95;0.90;;;;;;;;;;5043040;28;20053;-63
2022/04/04 11:46:14;;;;;;;2.78;0.95;;;;;;;;;;5042388;28;20064;-63
2022/04/04 11:48:49;;;;;;;6.78;0.85;;;;;;;;;;5041749;28;20462;-63
2022/04/04 11:51:16;;;;;;;4.70;0.80;;;;;;;;;;5034167;28;20041;-64
2022/04/04 11:53:44;;;;;;;2.85;0.80;;;;;;;;;;5043159;28;20517;-64
2022/04/04 11:56:20;;;;;;;3.15;0.88;;;;;;;;;;5041900;28;20041;-63
2022/04/04 11:58:51;;;;;;;3.40;0.82;;;;;;;;;;5039945;28;20647;-63
2022/04/04 12:01:21;;;;;;;3.42;0.90;;;;;;;;;;5028807;28;20147;-63
2022/04/04 12:03:50;;;;;;;3.05;0.80;;;;;;;;;;5031750;28;20048;-65
2022/04/04 12:06:17;;;;;;;3.83;0.80;;;;;;;;;;5032457;28;20125;-65
2022/04/04 12:08:44;;;;;;;2.22;0.70;;;;;;;;;;5040713;28;20572;-64
2022/04/04 12:11:11;;;;;;;2.75;0.90;;;;;;;;;;5042602;28;20065;-63
2022/04/04 12:13:56;;;;;;;2.47;0.80;;;;;;;;;;5039520;28;20045;-62
2022/04/04 12:16:24;;;;;;;3.00;0.70;;;;;;;;;;5017752;28;20513;-63
2022/04/04 12:18:54;;;;;;;3.22;0.80;;;;;;;;;;5058128;28;20461;-63
2022/04/04 12:21:21;;;;;;;2.60;0.80;;;;;;;;;;5058273;28;20135;-63
2022/04/04 12:26:34;;;;;;;2.90;0.90;;;;;;;;;;5042667;28;20047;-64
2022/04/04 12:29:03;;;;;;;3.63;1.00;;;;;;;;;;5038286;28;20401;-63
2022/04/04 12:31:29;;;;;;;1.98;0.70;;;;;;;;;;5040511;28;20028;-64
2022/04/04 12:34:07;;;;;;;3.65;0.90;;;;;;;;;;5044177;28;20036;-64
2022/04/04 12:36:40;;;;;;;4.07;0.80;;;;;;;;;;5041592;28;20509;-64
2022/04/04 12:39:08;;;;;;;4.22;1.00;;;;;;;;;;5038020;28;20036;-63
2022/04/04 12:41:45;;;;;;;2.88;0.90;;;;;;;;;;5058894;28;20083;-64
2022/04/04 12:44:12;;;;;;;5.57;0.90;;;;;;;;;;5044997;28;20055;-64
2022/04/04 12:46:39;;;;;;;2.67;0.75;;;;;;;;;;5044328;28;20041;-64
2022/04/04 12:49:10;;;;;;;3.10;0.90;;;;;;;;;;5045811;28;20037;-64
2022/04/04 12:51:38;;;;;;;8.07;1.00;;;;;;;;;;5043162;28;20779;-63
2022/04/04 12:54:05;;;;;;;3.88;0.90;;;;;;;;;;5045152;28;20116;-63
2022/04/04 12:56:46;;;;;;;4.47;0.80;;;;;;;;;;5041669;28;20049;-64
2022/04/04 12:59:13;;;;;;;3.30;0.65;;;;;;;;;;5022022;28;20172;-65
2022/04/04 13:01:40;;;;;;;3.55;0.90;;;;;;;;;;5043447;28;20076;-64
2022/04/04 13:04:20;;;;;;;3.88;1.00;;;;;;;;;;5046309;28;20071;-64
2022/04/04 13:06:47;;;;;;;4.85;0.98;;;;;;;;;;5042902;28;20049;-63
2022/04/04 13:09:22;;;;;;;3.75;0.95;;;;;;;;;;5043495;28;20036;-63
2022/04/04 13:11:49;;;;;;;3.80;1.05;;;;;;;;;;5032422;28;20668;-64
2022/04/04 13:14:16;;;;;;;5.15;0.88;;;;;;;;;;5043377;28;20521;-64
2022/04/04 13:16:45;;;;;;;5.63;0.70;;;;;;;;;;5041085;28;20045;-64
2022/04/04 13:19:15;;;;;;;3.65;0.85;;;;;;;;;;5044080;28;20676;-64
2022/04/04 13:21:42;;;;;;;9.95;1.70;;;;;;;;;;5040473;28;20075;-64
2022/04/04 13:24:09;;;;;;;2.92;1.02;;;;;;;;;;5043296;28;20461;-62
2022/04/04 13:26:37;;;;;;;5.43;0.93;;;;;;;;;;5040835;28;20675;-62
2022/04/04 13:29:04;;;;;;;3.70;1.02;;;;;;;;;;5039596;28;20047;-63
2022/04/04 13:31:31;;;;;;;3.13;0.90;;;;;;;;;;5032234;28;20045;-65
2022/04/04 13:33:58;;;;;;;6.30;1.60;;;;;;;;;;5043341;28;20056;-64
2022/04/04 13:36:25;;;;;;;6.18;1.35;;;;;;;;;;5042176;28;20048;-65
2022/04/04 13:38:55;;;;;;;4.68;1.13;;;;;;;;;;5044100;28;20041;-66
2022/04/04 13:41:21;;;;;;;5.15;1.55;;;;;;;;;;5042274;28;20093;-63
2022/04/04 13:43:48;;;;;;;6.07;1.52;;;;;;;;;;5041907;28;20574;-63
2022/04/04 13:46:18;;;;;;;4.63;1.25;;;;;;;;;;5044144;28;20037;-64
2022/04/04 13:48:47;;;;;;;5.80;1.38;;;;;;;;;;5044014;28;20033;-65
2022/04/04 13:51:19;;;;;;;7.18;1.38;;;;;;;;;;5043059;28;20037;-62
2022/04/04 13:53:57;;;;;;;2.83;0.95;;;;;;;;;;5046154;28;20045;-64
2022/04/04 13:56:25;;;;;;;3.70;1.15;;;;;;;;;;5046625;28;20413;-64
2022/04/04 13:58:52;;;;;;;6.55;1.02;;;;;;;;;;5047307;28;20048;-64
2022/04/04 14:01:22;;;;;;;3.30;0.88;;;;;;;;;;5048770;28;20044;-64
2022/04/04 14:03:51;;;;;;;2.45;0.77;;;;;;;;;;5036846;28;20044;-64
2022/04/04 14:06:18;;;;;;;3.22;0.90;;;;;;;;;;5047472;28;20037;-63
2022/04/04 14:08:45;;;;;;;3.97;1.05;;;;;;;;;;5042366;28;20038;-64
2022/04/04 14:11:12;;;;;;;5.22;1.02;;;;;;;;;;5034985;28;20056;-63
2022/04/04 14:13:40;;;;;;;5.22;1.02;;;;;;;;;;5025032;28;20449;-63
2022/04/04 14:16:07;;;;;;;4.35;0.90;;;;;;;;;;5046813;28;20139;-65
2022/04/04 14:18:34;;;;;;;6.40;1.38;;;;;;;;;;5045479;28;20041;-64
2022/04/04 14:21:01;;;;;;;5.57;1.00;;;;;;;;;;5045166;28;20043;-64
2022/04/04 14:23:28;;;;;;;3.75;1.23;;;;;;;;;;5029994;28;20045;-64
2022/04/04 14:25:56;;;;;;;5.10;0.90;;;;;;;;;;5044372;28;20367;-63
2022/04/04 14:28:24;;;;;;;4.88;1.27;;;;;;;;;;5044703;28;20029;-63
2022/04/04 14:30:55;;;;;;;4.95;1.00;;;;;;;;;;5045463;28;20103;-64
2022/04/04 14:33:23;;;;;;;6.07;1.30;;;;;;;;;;5044665;28;20054;-64
2022/04/04 14:35:50;;;;;;;7.88;1.42;;;;;;;;;;5044411;28;20039;-66
2022/04/04 14:38:17;;;;;;;7.70;1.02;;;;;;;;;;5041956;28;20551;-64
2022/04/04 14:40:44;;;;;;;7.03;1.60;;;;;;;;;;5044343;28;20048;-64
2022/04/04 14:43:10;;;;;;;6.00;1.50;;;;;;;;;;5046464;28;20053;-65
2022/04/04 14:45:37;;;;;;;8.25;1.20;;;;;;;;;;5023288;28;20038;-64
2022/04/04 14:48:06;;;;;;;7.13;1.40;;;;;;;;;;5028351;28;20083;-64
2022/04/04 14:50:33;;;;;;;4.78;1.10;;;;;;;;;;5044842;28;20045;-65
2022/04/04 14:53:00;;;;;;;3.45;1.17;;;;;;;;;;5044969;28;20076;-64
2022/04/04 14:55:27;;;;;;;7.22;1.10;;;;;;;;;;5045111;28;20036;-64
2022/04/04 14:57:54;;;;;;;6.03;0.90;;;;;;;;;;5046003;28;20389;-64